createdAt,value
2022-09-18T00:04:14.475Z,19.70
2022-09-18T00:09:15.683Z,19.70
2022-09-18T00:14:15.722Z,19.70
2022-09-18T00:19:15.034Z,19.70
2022-09-18T00:24:17.490Z,19.70
2022-09-18T00:29:17.203Z,19.70
2022-09-18T00:34:16.273Z,19.70
2022-09-18T00:39:16.233Z,19.60
2022-09-18T00:44:37.436Z,19.60
2022-09-18T00:49:36.343Z,19.60
2022-09-18T00:54:38.884Z,19.60
2022-09-18T00:59:39.278Z,19.60
2022-09-18T01:04:37.433Z,19.60
2022-09-18T01:09:44.423Z,19.60
2022-09-18T01:14:48.480Z,19.60
2022-09-18T01:20:17.870Z,19.60
2022-09-18T01:25:27.950Z,19.60
2022-09-18T01:30:27.507Z,19.70
2022-09-18T01:35:41.110Z,19.50
2022-09-18T01:40:47.206Z,19.50
2022-09-18T01:45:49.403Z,19.50
2022-09-18T01:50:56.904Z,19.50
2022-09-18T01:56:01.228Z,19.50
2022-09-18T02:01:06.787Z,19.50
2022-09-18T02:06:09.051Z,19.40
2022-09-18T02:11:11.999Z,19.40
2022-09-18T02:16:17.309Z,19.40
2022-09-18T02:21:27.051Z,19.40
2022-09-18T02:26:25.540Z,19.40
2022-09-18T02:31:25.154Z,19.40
2022-09-18T02:36:47.352Z,19.40
2022-09-18T02:41:50.341Z,19.40
2022-09-18T02:47:01.492Z,19.30
2022-09-18T02:52:05.508Z,19.30
2022-09-18T02:57:10.820Z,19.30
2022-09-18T03:02:11.127Z,19.30
2022-09-18T03:07:14.571Z,19.30
2022-09-18T03:12:14.405Z,19.30
2022-09-18T03:17:20.007Z,19.30
2022-09-18T03:22:18.253Z,19.30
2022-09-18T03:27:18.687Z,19.30
2022-09-18T03:32:17.310Z,19.20
2022-09-18T03:37:19.784Z,19.20
2022-09-18T03:42:18.801Z,19.20
2022-09-18T03:47:17.004Z,19.20
2022-09-18T03:52:15.516Z,19.20
2022-09-18T03:57:23.054Z,19.20
2022-09-18T04:02:50.562Z,19.20
2022-09-18T04:08:27.165Z,19.20
2022-09-18T04:13:46.907Z,19.20
2022-09-18T04:18:45.432Z,19.10
2022-09-18T04:23:43.636Z,19.10
2022-09-18T04:28:44.362Z,19.10
2022-09-18T04:33:46.960Z,19.10
2022-09-18T04:38:45.145Z,19.10
2022-09-18T04:43:43.445Z,19.10
2022-09-18T04:48:42.313Z,19.10
2022-09-18T04:53:43.169Z,19.10
2022-09-18T04:58:41.685Z,19.10
2022-09-18T05:03:41.024Z,19.00
2022-09-18T05:08:44.073Z,19.00
2022-09-18T05:13:43.375Z,19.00
2022-09-18T05:18:46.377Z,19.00
2022-09-18T05:23:46.975Z,19.00
2022-09-18T05:28:50.827Z,19.00
2022-09-18T05:33:51.283Z,19.00
2022-09-18T05:38:51.560Z,19.00
2022-09-18T05:43:49.998Z,19.00
2022-09-18T05:48:49.799Z,19.00
2022-09-18T05:53:48.711Z,19.00
2022-09-18T05:58:54.297Z,19.00
2022-09-18T06:03:52.995Z,19.00
2022-09-18T06:08:53.532Z,19.00
2022-09-18T06:13:54.684Z,19.00
2022-09-18T06:18:53.250Z,19.00
2022-09-18T06:23:52.944Z,19.00
2022-09-18T06:29:27.688Z,19.00
2022-09-18T06:34:40.956Z,19.00
2022-09-18T06:39:42.273Z,18.90
2022-09-18T06:44:46.545Z,18.90
2022-09-18T06:49:46.469Z,18.90
2022-09-18T06:54:44.685Z,18.90
2022-09-18T06:59:55.618Z,18.90
2022-09-18T07:04:53.925Z,18.90
2022-09-18T07:09:52.081Z,18.90
2022-09-18T07:15:02.470Z,18.90
2022-09-18T07:20:00.727Z,18.90
2022-09-18T07:25:09.513Z,19.00
2022-09-18T07:30:11.548Z,18.90
2022-09-18T07:35:10.741Z,18.90
2022-09-18T07:40:12.218Z,18.90
2022-09-18T07:45:30.812Z,18.90
2022-09-18T07:50:29.705Z,18.90
2022-09-18T07:55:28.550Z,18.90
2022-09-18T08:00:34.756Z,18.90
2022-09-18T08:05:34.166Z,19.00
2022-09-18T08:10:33.613Z,19.00
2022-09-18T08:16:06.577Z,18.90
2022-09-18T08:21:25.018Z,19.00
2022-09-18T08:26:26.996Z,19.00
2022-09-18T08:31:27.951Z,19.00
2022-09-18T08:36:29.478Z,19.00
2022-09-18T08:41:52.246Z,19.00
2022-09-18T08:47:01.581Z,19.00
2022-09-18T08:52:05.600Z,19.10
2022-09-18T08:57:15.499Z,19.00
2022-09-18T09:02:39.878Z,19.10
2022-09-18T09:08:03.518Z,19.10
2022-09-18T09:13:31.063Z,19.10
2022-09-18T09:18:34.001Z,19.20
2022-09-18T09:23:49.915Z,19.20
2022-09-18T09:29:13.040Z,19.20
2022-09-18T09:34:37.109Z,19.20
2022-09-18T09:39:42.758Z,19.10
2022-09-18T09:44:46.966Z,19.20
2022-09-18T09:50:01.521Z,19.20
2022-09-18T09:55:22.415Z,19.20
2022-09-18T10:00:23.796Z,19.20
2022-09-18T10:05:43.062Z,19.20
2022-09-18T10:11:44.034Z,19.50
2022-09-18T10:16:46.377Z,17.80
2022-09-18T10:21:46.220Z,16.40
2022-09-18T10:26:49.973Z,15.60
2022-09-18T10:31:50.383Z,15.30
2022-09-18T10:36:50.816Z,15.00
2022-09-18T10:41:51.962Z,14.80
2022-09-18T10:46:57.583Z,14.60
2022-09-18T10:52:28.522Z,14.30
2022-09-18T10:57:33.231Z,14.20
2022-09-18T11:02:39.720Z,14.10
2022-09-18T11:07:39.958Z,14.00
2022-09-18T11:12:52.299Z,14.00
2022-09-18T11:17:57.955Z,14.20
2022-09-18T11:23:14.557Z,14.30
2022-09-18T11:28:24.447Z,14.50
2022-09-18T11:33:27.379Z,14.70
2022-09-18T11:38:29.793Z,14.80
2022-09-18T11:43:34.514Z,14.90
2022-09-18T11:48:37.848Z,15.00
2022-09-18T11:53:41.986Z,15.10
2022-09-18T11:58:46.277Z,15.30
2022-09-18T12:03:50.562Z,15.50
2022-09-18T12:08:55.408Z,15.70
2022-09-18T12:14:09.198Z,15.90
2022-09-18T12:19:13.665Z,16.10
2022-09-18T12:24:14.697Z,16.20
2022-09-18T12:29:28.723Z,16.00
2022-09-18T12:34:33.860Z,16.00
2022-09-18T12:40:08.875Z,16.10
2022-09-18T12:45:40.483Z,16.20
2022-09-18T12:50:57.208Z,16.20
2022-09-18T12:56:11.019Z,16.20
2022-09-18T13:01:23.156Z,16.20
2022-09-18T13:06:30.018Z,16.30
2022-09-18T13:11:33.552Z,16.50
2022-09-18T13:16:38.718Z,16.60
2022-09-18T13:21:41.757Z,16.70
2022-09-18T13:26:40.862Z,16.80
2022-09-18T13:31:40.717Z,16.70
2022-09-18T13:36:41.867Z,16.50
2022-09-18T13:41:46.340Z,16.40
2022-09-18T13:46:46.194Z,16.30
2022-09-18T13:51:44.499Z,16.30
2022-09-18T13:57:17.190Z,16.20
2022-09-18T14:02:28.957Z,16.20
2022-09-18T14:08:16.169Z,16.10
2022-09-18T14:13:40.007Z,16.00
2022-09-18T14:18:54.474Z,15.90
2022-09-18T14:24:25.374Z,15.90
2022-09-18T14:29:27.140Z,16.10
2022-09-18T14:34:31.465Z,16.10
2022-09-18T14:39:32.723Z,16.20
2022-09-18T14:44:32.566Z,16.20
2022-09-18T14:49:35.097Z,16.10
2022-09-18T14:54:40.890Z,16.00
2022-09-18T14:59:39.396Z,16.10
2022-09-18T15:04:39.492Z,15.90
2022-09-18T15:09:48.962Z,15.80
2022-09-18T15:14:47.921Z,15.70
2022-09-18T15:19:58.180Z,15.60
2022-09-18T15:24:58.652Z,15.60
2022-09-18T15:30:01.199Z,15.50
2022-09-18T15:35:01.781Z,15.50
2022-09-18T15:40:06.523Z,15.40
2022-09-18T15:45:20.230Z,15.40
2022-09-18T15:50:37.746Z,15.40
2022-09-18T15:55:54.152Z,15.30
2022-09-18T16:00:57.967Z,15.20
2022-09-18T16:06:00.756Z,15.10
2022-09-18T16:11:00.085Z,15.10
2022-09-18T16:16:23.797Z,15.00
2022-09-18T16:21:25.558Z,15.00
2022-09-18T16:26:28.355Z,15.00
2022-09-18T16:31:28.901Z,15.00
2022-09-18T16:36:31.812Z,14.90
2022-09-18T16:41:30.687Z,14.90
2022-09-18T16:46:33.627Z,14.80
2022-09-18T16:51:33.740Z,14.80
2022-09-18T16:56:38.771Z,14.80
2022-09-18T17:01:54.231Z,14.80
2022-09-18T17:06:58.531Z,14.70
2022-09-18T17:11:56.727Z,14.70
2022-09-18T17:16:55.577Z,14.70
2022-09-18T17:21:53.827Z,14.60
2022-09-18T17:26:54.002Z,14.60
2022-09-18T17:31:52.980Z,14.60
2022-09-18T17:36:51.282Z,14.50
2022-09-18T17:41:50.184Z,14.50
2022-09-18T17:46:52.616Z,14.40
2022-09-18T17:51:50.857Z,14.40
2022-09-18T17:56:49.309Z,14.30
2022-09-18T18:01:48.997Z,14.30
2022-09-18T18:06:49.070Z,14.30
2022-09-18T18:11:48.211Z,14.20
2022-09-18T18:16:49.750Z,14.20
2022-09-18T18:21:51.511Z,14.10
2022-09-18T18:26:49.941Z,14.10
2022-09-18T18:31:49.326Z,14.00
2022-09-18T18:36:47.724Z,14.00
2022-09-18T18:41:47.340Z,13.90
2022-09-18T18:46:45.538Z,13.90
2022-09-18T18:51:47.636Z,13.80
2022-09-18T18:56:48.567Z,13.80
2022-09-18T19:01:47.387Z,13.80
2022-09-18T19:06:46.578Z,13.80
2022-09-18T19:11:48.228Z,13.70
2022-09-18T19:16:48.608Z,13.70
2022-09-18T19:21:47.281Z,13.70
2022-09-18T19:26:46.635Z,13.70
2022-09-18T19:31:47.519Z,13.60
2022-09-18T19:36:50.230Z,13.60
2022-09-18T19:41:52.221Z,13.50
2022-09-18T19:46:53.467Z,13.50
2022-09-18T19:51:51.641Z,13.50
2022-09-18T19:56:50.331Z,13.40
2022-09-18T20:01:48.587Z,13.40
2022-09-18T20:06:48.147Z,13.40
2022-09-18T20:11:48.292Z,13.30
2022-09-18T20:16:46.588Z,13.30
2022-09-18T20:21:44.731Z,13.20
2022-09-18T20:26:44.404Z,13.20
2022-09-18T20:31:43.022Z,13.20
2022-09-18T20:36:41.223Z,13.10
2022-09-18T20:41:40.612Z,13.10
2022-09-18T20:46:42.822Z,13.10
2022-09-18T20:51:41.095Z,13.10
2022-09-18T20:56:42.034Z,13.10
2022-09-18T21:01:42.167Z,13.10
2022-09-18T21:06:41.583Z,13.10
2022-09-18T21:11:42.287Z,13.10
2022-09-18T21:16:43.935Z,13.10
2022-09-18T21:21:42.622Z,13.10
2022-09-18T21:26:42.939Z,13.10
2022-09-18T21:31:43.480Z,13.10
2022-09-18T21:36:43.398Z,13.10
2022-09-18T21:41:46.053Z,13.10
2022-09-18T21:46:46.899Z,13.20
2022-09-18T21:51:45.152Z,13.20
2022-09-18T21:56:44.190Z,13.20
2022-09-18T22:01:43.063Z,13.20
2022-09-18T22:06:45.210Z,13.20
2022-09-18T22:11:44.790Z,13.20
2022-09-18T22:16:45.118Z,13.20
2022-09-18T22:21:46.726Z,13.20
2022-09-18T22:26:47.414Z,13.10
2022-09-18T22:31:47.497Z,13.20
2022-09-18T22:36:48.421Z,13.10
2022-09-18T22:41:47.027Z,13.10
2022-09-18T22:46:47.509Z,13.10
2022-09-18T22:51:48.484Z,13.10
2022-09-18T22:56:49.805Z,13.10
2022-09-18T23:01:51.176Z,13.00
2022-09-18T23:06:51.829Z,13.00
2022-09-18T23:11:52.979Z,13.00
2022-09-18T23:16:52.000Z,13.00
2022-09-18T23:21:51.977Z,13.00
2022-09-18T23:26:52.115Z,13.00
2022-09-18T23:31:53.419Z,13.10
2022-09-18T23:36:56.155Z,13.00
2022-09-18T23:41:54.475Z,13.10
2022-09-18T23:46:52.960Z,13.10
2022-09-18T23:51:54.436Z,13.10
2022-09-18T23:56:53.222Z,13.10
